Terminal Aerodrome Forecast
Issued by NWS

Home | Current Version | Previous Version | Text Only | Print | Product List | Glossary On
Versions: 1 2 3 4 5 6 7 8 9 10 11 12 13 14 15 16
000
FTUS41 KPHI 232348
TAFMIV
TAF
KMIV 232348Z 2400/2424 25004KT P6SM FEW250
     FM240300 21007KT P6SM FEW250
     FM241500 20010G17KT P6SM OVC100 PROB30 2416/2418 6SM -RA OVC050
     FM242000 21012G22KT P6SM SCT050 OVC120
     FM242300 20007KT P6SM SCT040 BKN150=

USA.gov is the U.S. government's official web portal to all federal, state and local government web resources and services.